Time;durP1;ratioP1;P1;durP2;ratioP2;P2;SDS_P1;SDS_P2;PMS_P1;PMS_P2;Temp;Humidity;BMP_temperature;BMP_pressure;BME280_temperature;BME280_humidity;BME280_pressure;Samples;Min_cycle;Max_cycle;Signal;HPM_P1;HPM_P2
2022/04/30 00:00:48;;;;;;;;;25.33;24.00;;;;;;;;5006385;27;45916;-75
2022/04/30 00:03:13;;;;;;;;;30.00;26.00;;;;;;;;5007915;27;45827;-75
2022/04/30 00:05:39;;;;;;;;;32.33;30.33;;;;;;;;5008777;27;45416;-74
2022/04/30 00:08:05;;;;;;;;;28.33;24.33;;;;;;;;5000754;27;46048;-75
2022/04/30 00:10:31;;;;;;;;;25.00;24.00;;;;;;;;4981036;28;45448;-75
2022/04/30 00:12:57;;;;;;;;;30.00;27.33;;;;;;;;4993990;28;45439;-75
2022/04/30 00:15:22;;;;;;;;;30.33;24.33;;;;;;;;4982813;28;45650;-80
2022/04/30 00:17:47;;;;;;;;;33.33;29.00;;;;;;;;5029824;27;45845;-80
2022/04/30 00:20:12;;;;;;;;;35.00;29.33;;;;;;;;4974789;28;46533;-80
2022/04/30 00:22:38;;;;;;;;;36.00;31.00;;;;;;;;5079150;27;45767;-81
2022/04/30 00:25:03;;;;;;;;;31.67;29.33;;;;;;;;5097765;27;45814;-80
2022/04/30 00:27:31;;;;;;;;;32.67;28.00;;;;;;;;5094539;27;46336;-81
2022/04/30 00:29:58;;;;;;;;;35.67;32.00;;;;;;;;5062790;27;45397;-74
2022/04/30 00:32:23;;;;;;;;;33.67;30.00;;;;;;;;4998060;28;45816;-76
2022/04/30 00:34:48;;;;;;;;;36.67;31.00;;;;;;;;4982659;28;45455;-74
2022/04/30 00:37:14;;;;;;;;;33.00;29.67;;;;;;;;4988377;28;46750;-73
2022/04/30 00:39:39;;;;;;;;;28.33;27.00;;;;;;;;4992736;27;45759;-75
2022/04/30 00:42:04;;;;;;;;;33.33;30.33;;;;;;;;4992196;28;45420;-75
2022/04/30 00:44:30;;;;;;;;;32.00;28.00;;;;;;;;4991404;27;45419;-75
2022/04/30 00:46:55;;;;;;;;;39.33;33.33;;;;;;;;4991729;28;45480;-75
2022/04/30 00:49:21;;;;;;;;;34.00;30.67;;;;;;;;4991855;28;45395;-74
2022/04/30 00:51:48;;;;;;;;;30.00;27.67;;;;;;;;5060833;28;45367;-74
2022/04/30 00:54:13;;;;;;;;;36.67;29.00;;;;;;;;4991919;28;46037;-75
2022/04/30 00:56:43;;;;;;;;;35.00;31.67;;;;;;;;4991813;28;45617;-75
2022/04/30 00:59:09;;;;;;;;;32.33;28.00;;;;;;;;4991985;28;45467;-75
2022/04/30 01:01:36;;;;;;;;;32.00;28.33;;;;;;;;5005106;28;45834;-75
2022/04/30 01:04:01;;;;;;;;;35.67;31.00;;;;;;;;4994343;28;46358;-75
2022/04/30 01:06:46;;;;;;;;;34.00;31.67;;;;;;;;4993554;28;46171;-75
2022/04/30 01:09:11;;;;;;;;;31.00;30.67;;;;;;;;5011873;27;45550;-75
2022/04/30 01:11:36;;;;;;;;;37.33;32.00;;;;;;;;4998313;28;45700;-75
2022/04/30 01:14:02;;;;;;;;;39.33;33.00;;;;;;;;4991951;28;45512;-74
2022/04/30 01:16:27;;;;;;;;;43.00;32.67;;;;;;;;4993293;27;46247;-75
2022/04/30 01:18:53;;;;;;;;;31.00;26.00;;;;;;;;4992745;28;45621;-81
2022/04/30 01:21:19;;;;;;;;;35.00;30.33;;;;;;;;4992393;27;45864;-79
2022/04/30 01:23:45;;;;;;;;;39.00;30.00;;;;;;;;4995632;27;45614;-81
2022/04/30 01:26:13;;;;;;;;;39.33;29.67;;;;;;;;4993081;28;45405;-79
2022/04/30 01:28:40;;;;;;;;;30.00;26.67;;;;;;;;4992680;28;45920;-79
2022/04/30 01:37:22;;;;;;;;;31.33;28.33;;;;;;;;4996170;28;45368;-79
2022/04/30 01:39:18;;;;;;;;;32.33;29.33;;;;;;;;4991769;28;45636;-74
2022/04/30 01:41:43;;;;;;;;;30.67;23.67;;;;;;;;4992915;28;45686;-74
2022/04/30 01:44:09;;;;;;;;;34.00;31.67;;;;;;;;4991505;28;45683;-74
2022/04/30 01:46:35;;;;;;;;;38.67;32.00;;;;;;;;4973207;28;46960;-73
2022/04/30 01:49:00;;;;;;;;;38.00;32.67;;;;;;;;5058180;28;45861;-74
2022/04/30 01:51:25;;;;;;;;;36.33;31.00;;;;;;;;4978793;27;45380;-75
2022/04/30 01:53:51;;;;;;;;;36.33;31.67;;;;;;;;4990659;28;45430;-74
2022/04/30 01:56:16;;;;;;;;;39.33;31.33;;;;;;;;5007981;28;46008;-73
2022/04/30 01:58:41;;;;;;;;;38.33;30.33;;;;;;;;5010615;27;45863;-74
2022/04/30 02:01:10;;;;;;;;;34.67;30.33;;;;;;;;4999205;27;45484;-74
2022/04/30 02:03:35;;;;;;;;;32.33;28.33;;;;;;;;4979967;27;45319;-75
2022/04/30 02:06:02;;;;;;;;;33.00;30.33;;;;;;;;4992422;28;45621;-75
2022/04/30 02:08:28;;;;;;;;;34.00;26.67;;;;;;;;4990346;28;45742;-74
2022/04/30 02:10:53;;;;;;;;;30.67;28.00;;;;;;;;4991355;28;45758;-73
2022/04/30 02:13:21;;;;;;;;;35.00;30.00;;;;;;;;4992685;28;45473;-79
2022/04/30 02:15:46;;;;;;;;;31.33;29.00;;;;;;;;4994014;28;45753;-78
2022/04/30 02:18:15;;;;;;;;;35.00;31.33;;;;;;;;5060867;28;45784;-80
2022/04/30 02:20:50;;;;;;;;;36.33;29.00;;;;;;;;5009716;27;45404;-81
2022/04/30 02:23:15;;;;;;;;;32.33;27.67;;;;;;;;5063154;27;45731;-79
2022/04/30 02:25:41;;;;;;;;;34.33;30.33;;;;;;;;4993024;28;46160;-78
2022/04/30 02:28:08;;;;;;;;;33.67;27.67;;;;;;;;4994507;28;45722;-80
2022/04/30 02:30:37;;;;;;;;;31.00;27.00;;;;;;;;4994710;28;45623;-79
2022/04/30 02:33:08;;;;;;;;;39.33;34.33;;;;;;;;4977420;28;46585;-79
2022/04/30 02:35:34;;;;;;;;;33.33;28.33;;;;;;;;4978299;28;47141;-78
2022/04/30 02:38:00;;;;;;;;;21.33;21.33;;;;;;;;4997290;28;45182;-81
2022/04/30 02:40:27;;;;;;;;;40.33;31.67;;;;;;;;4993730;27;45465;-80
2022/04/30 02:42:53;;;;;;;;;31.67;28.67;;;;;;;;4976426;28;45864;-80
2022/04/30 02:45:19;;;;;;;;;33.67;29.00;;;;;;;;4996839;28;45419;-79
2022/04/30 02:47:46;;;;;;;;;33.00;28.67;;;;;;;;4990827;28;45667;-75
2022/04/30 02:50:13;;;;;;;;;29.00;25.67;;;;;;;;4990657;28;45653;-76
2022/04/30 02:52:38;;;;;;;;;34.00;29.33;;;;;;;;4991053;28;45718;-76
2022/04/30 02:55:04;;;;;;;;;31.00;28.00;;;;;;;;4990149;27;45507;-76
2022/04/30 02:57:39;;;;;;;;;30.00;26.00;;;;;;;;4990680;28;45321;-75
2022/04/30 03:00:06;;;;;;;;;31.67;29.00;;;;;;;;4990650;27;45399;-75
2022/04/30 03:02:31;;;;;;;;;34.33;30.00;;;;;;;;4990464;28;45623;-74
2022/04/30 03:04:56;;;;;;;;;27.67;26.00;;;;;;;;4991585;28;45759;-76
2022/04/30 03:07:22;;;;;;;;;31.67;27.67;;;;;;;;4990761;28;45399;-81
2022/04/30 03:09:48;;;;;;;;;31.67;28.33;;;;;;;;4975778;28;45914;-80
2022/04/30 03:12:14;;;;;;;;;32.00;29.00;;;;;;;;4990011;27;45259;-79
2022/04/30 03:14:40;;;;;;;;;39.00;30.00;;;;;;;;4988158;27;45740;-81
2022/04/30 03:22:34;;;;;;;;;30.33;30.33;;;;;;;;4991587;27;45623;-80
2022/04/30 03:24:59;;;;;;;;;37.00;30.33;;;;;;;;5008935;28;46145;-80
2022/04/30 03:27:24;;;;;;;;;35.00;30.33;;;;;;;;4994985;28;45556;-81
2022/04/30 03:29:49;;;;;;;;;29.00;25.00;;;;;;;;5012722;28;45756;-80
2022/04/30 03:32:15;;;;;;;;;25.67;24.33;;;;;;;;5010932;27;45672;-80
2022/04/30 03:34:40;;;;;;;;;33.33;27.67;;;;;;;;5029092;27;46121;-79
2022/04/30 03:37:05;;;;;;;;;36.67;30.33;;;;;;;;5098091;27;45754;-79
2022/04/30 03:39:30;;;;;;;;;32.00;30.67;;;;;;;;5027263;27;45357;-82
2022/04/30 03:41:56;;;;;;;;;40.00;29.67;;;;;;;;4993502;28;45649;-81
2022/04/30 03:44:21;;;;;;;;;28.00;26.00;;;;;;;;4996013;28;46052;-81
2022/04/30 03:46:46;;;;;;;;;30.00;28.00;;;;;;;;4977483;28;45553;-79
2022/04/30 03:49:12;;;;;;;;;39.33;28.33;;;;;;;;4992222;28;45313;-80
2022/04/30 03:51:38;;;;;;;;;27.00;23.33;;;;;;;;4993241;28;45232;-78
2022/04/30 03:54:03;;;;;;;;;30.00;26.00;;;;;;;;4974123;28;47272;-80
2022/04/30 03:56:28;;;;;;;;;33.33;28.00;;;;;;;;4972911;28;45722;-79
2022/04/30 03:58:53;;;;;;;;;32.33;27.33;;;;;;;;4989839;28;46005;-80
2022/04/30 04:01:19;;;;;;;;;30.67;28.00;;;;;;;;4992025;28;45393;-81
2022/04/30 04:03:45;;;;;;;;;31.00;28.00;;;;;;;;4991533;28;45865;-80
2022/04/30 04:06:13;;;;;;;;;29.00;26.00;;;;;;;;4990415;28;45578;-79
2022/04/30 04:08:39;;;;;;;;;25.33;21.67;;;;;;;;4995995;27;45662;-80
2022/04/30 04:11:11;;;;;;;;;35.67;31.00;;;;;;;;4995312;28;45269;-80
2022/04/30 04:19:05;;;;;;;;;31.67;28.67;;;;;;;;4992120;28;45717;-76
2022/04/30 04:21:30;;;;;;;;;29.67;27.00;;;;;;;;5056974;28;45910;-76
2022/04/30 04:26:39;;;;;;;;;38.67;31.00;;;;;;;;4985693;28;45839;-73
2022/04/30 04:29:05;;;;;;;;;24.33;24.33;;;;;;;;4985142;27;45792;-75
2022/04/30 04:31:30;;;;;;;;;31.67;26.00;;;;;;;;4973997;28;45614;-77
2022/04/30 04:33:56;;;;;;;;;33.67;29.67;;;;;;;;5004715;27;45345;-76
2022/04/30 04:36:21;;;;;;;;;32.33;28.67;;;;;;;;5014551;27;45330;-75
2022/04/30 04:38:46;;;;;;;;;32.67;29.67;;;;;;;;5007472;27;45699;-75
2022/04/30 04:41:12;;;;;;;;;32.67;30.33;;;;;;;;5041280;27;45694;-74
2022/04/30 04:43:37;;;;;;;;;31.67;29.67;;;;;;;;5096360;27;45508;-73
2022/04/30 04:46:03;;;;;;;;;33.00;28.00;;;;;;;;5077817;27;45461;-74
2022/04/30 04:48:29;;;;;;;;;38.33;31.33;;;;;;;;5095786;27;45376;-74
2022/04/30 04:50:54;;;;;;;;;34.00;30.33;;;;;;;;5015605;27;45820;-75
2022/04/30 04:53:19;;;;;;;;;36.33;31.67;;;;;;;;4983329;28;46822;-74
2022/04/30 04:55:44;;;;;;;;;37.00;29.00;;;;;;;;4992660;28;45741;-75
2022/04/30 04:58:10;;;;;;;;;38.00;30.00;;;;;;;;4992579;28;45863;-75
2022/04/30 05:00:35;;;;;;;;;35.67;30.00;;;;;;;;4978199;27;46810;-77
2022/04/30 05:03:01;;;;;;;;;32.00;30.00;;;;;;;;4982475;27;47486;-74
2022/04/30 05:05:26;;;;;;;;;28.67;27.67;;;;;;;;4989691;27;45341;-75
2022/04/30 05:07:51;;;;;;;;;33.67;30.67;;;;;;;;4986484;28;45414;-74
2022/04/30 05:10:17;;;;;;;;;34.67;31.00;;;;;;;;4978618;28;45493;-75
2022/04/30 05:12:45;;;;;;;;;30.67;23.67;;;;;;;;4981226;27;46483;-74
2022/04/30 05:15:11;;;;;;;;;38.33;31.00;;;;;;;;4982939;27;45586;-75
2022/04/30 05:17:36;;;;;;;;;36.00;30.67;;;;;;;;4981708;27;45650;-80
2022/04/30 05:20:02;;;;;;;;;30.67;28.00;;;;;;;;4980720;28;45432;-79
2022/04/30 05:22:27;;;;;;;;;35.67;32.00;;;;;;;;4991611;27;46937;-81
2022/04/30 05:24:52;;;;;;;;;32.00;29.67;;;;;;;;4988778;27;45528;-80
2022/04/30 05:27:18;;;;;;;;;40.00;32.00;;;;;;;;5053018;27;45358;-80
2022/04/30 05:29:43;;;;;;;;;37.00;32.00;;;;;;;;4993871;28;45511;-80
2022/04/30 05:32:09;;;;;;;;;38.67;33.67;;;;;;;;4986669;27;46017;-78
2022/04/30 05:34:34;;;;;;;;;37.00;34.33;;;;;;;;4978702;28;45445;-79
2022/04/30 05:36:59;;;;;;;;;34.67;32.67;;;;;;;;4984401;27;45524;-81
2022/04/30 05:39:26;;;;;;;;;35.33;31.00;;;;;;;;4979462;28;45792;-80
2022/04/30 05:41:51;;;;;;;;;38.00;30.00;;;;;;;;4987974;27;45487;-81
2022/04/30 05:44:16;;;;;;;;;33.33;31.67;;;;;;;;4976006;27;45445;-80
2022/04/30 05:46:42;;;;;;;;;38.33;32.33;;;;;;;;4983064;27;45572;-77
2022/04/30 05:49:07;;;;;;;;;31.33;27.00;;;;;;;;4979819;27;45354;-79
2022/04/30 05:51:33;;;;;;;;;33.33;30.00;;;;;;;;4985166;28;46064;-78
2022/04/30 05:53:58;;;;;;;;;31.00;28.00;;;;;;;;4962017;28;45560;-79
2022/04/30 05:56:24;;;;;;;;;29.67;27.67;;;;;;;;4981311;27;45456;-76
2022/04/30 05:58:49;;;;;;;;;32.33;22.00;;;;;;;;4981273;27;45858;-79
2022/04/30 06:01:14;;;;;;;;;29.00;27.00;;;;;;;;4980815;28;46282;-79
2022/04/30 06:03:40;;;;;;;;;38.67;32.67;;;;;;;;4983626;27;45546;-81
2022/04/30 06:06:05;;;;;;;;;28.00;25.00;;;;;;;;4985830;27;45882;-81
2022/04/30 06:08:31;;;;;;;;;31.67;29.33;;;;;;;;4974255;28;47105;-81
2022/04/30 06:10:57;;;;;;;;;30.67;27.67;;;;;;;;4977296;27;47166;-81
2022/04/30 06:13:23;;;;;;;;;31.33;27.33;;;;;;;;4976571;27;45861;-82
2022/04/30 06:15:48;;;;;;;;;33.00;29.67;;;;;;;;4982331;27;45432;-80
2022/04/30 06:18:15;;;;;;;;;42.67;35.33;;;;;;;;4978734;27;45746;-74
2022/04/30 06:20:41;;;;;;;;;36.67;31.67;;;;;;;;4978040;28;47182;-75
2022/04/30 06:23:06;;;;;;;;;35.67;30.00;;;;;;;;4979290;27;45475;-76
2022/04/30 06:25:31;;;;;;;;;35.33;30.33;;;;;;;;4978376;27;45420;-73
2022/04/30 06:27:57;;;;;;;;;32.00;28.50;;;;;;;;4981850;27;45436;-74
2022/04/30 06:30:22;;;;;;;;;40.33;34.33;;;;;;;;4984043;27;45971;-74
2022/04/30 06:32:48;;;;;;;;;35.67;32.67;;;;;;;;4979271;27;45876;-71
2022/04/30 06:35:13;;;;;;;;;36.00;33.00;;;;;;;;4979416;27;45739;-74
2022/04/30 06:37:38;;;;;;;;;38.67;32.67;;;;;;;;4985042;27;45672;-74
2022/04/30 06:40:05;;;;;;;;;38.00;31.00;;;;;;;;4983678;27;45754;-74
2022/04/30 06:42:50;;;;;;;;;31.67;28.00;;;;;;;;4970885;27;46082;-74
2022/04/30 06:45:17;;;;;;;;;36.67;29.33;;;;;;;;4981620;27;45567;-74
2022/04/30 06:47:42;;;;;;;;;30.33;29.67;;;;;;;;4978897;27;45729;-74
2022/04/30 06:50:08;;;;;;;;;34.33;29.67;;;;;;;;4967992;28;45573;-73
2022/04/30 06:52:33;;;;;;;;;36.67;30.00;;;;;;;;4984535;28;45796;-72
2022/04/30 06:57:46;;;;;;;;;33.33;28.00;;;;;;;;4988208;27;45560;-75
2022/04/30 07:02:55;;;;;;;;;27.00;25.00;;;;;;;;4985756;27;45428;-74
2022/04/30 07:05:21;;;;;;;;;40.67;34.00;;;;;;;;4982381;28;45502;-73
2022/04/30 07:07:47;;;;;;;;;21.00;19.33;;;;;;;;4980936;27;45594;-75
2022/04/30 07:10:12;;;;;;;;;23.00;21.00;;;;;;;;4994759;27;45852;-80
2022/04/30 07:12:37;;;;;;;;;30.67;21.33;;;;;;;;4981311;27;45588;-76
2022/04/30 07:15:03;;;;;;;;;20.00;19.67;;;;;;;;4978723;27;45575;-74
2022/04/30 07:17:28;;;;;;;;;26.00;20.67;;;;;;;;4986275;27;45607;-76
2022/04/30 07:19:53;;;;;;;;;25.67;22.00;;;;;;;;4989225;27;45469;-76
2022/04/30 07:22:18;;;;;;;;;25.67;20.67;;;;;;;;5007261;28;45313;-78
2022/04/30 07:24:44;;;;;;;;;27.33;22.67;;;;;;;;4993758;27;45933;-75
2022/04/30 07:27:09;;;;;;;;;28.33;24.00;;;;;;;;4990420;28;46107;-76
2022/04/30 07:29:36;;;;;;;;;26.67;24.33;;;;;;;;4980235;28;46007;-76
2022/04/30 07:32:01;;;;;;;;;22.33;18.33;;;;;;;;4989438;27;45841;-76
2022/04/30 07:34:27;;;;;;;;;25.33;20.00;;;;;;;;4980136;27;45515;-76
2022/04/30 07:36:53;;;;;;;;;23.33;21.00;;;;;;;;4977671;27;46407;-77
2022/04/30 07:39:18;;;;;;;;;19.67;17.67;;;;;;;;4985977;28;45459;-79
2022/04/30 07:41:43;;;;;;;;;27.33;22.33;;;;;;;;5061524;27;45281;-77
2022/04/30 07:44:10;;;;;;;;;23.00;22.67;;;;;;;;5069916;28;45766;-76
2022/04/30 07:46:36;;;;;;;;;21.00;18.00;;;;;;;;5022363;27;47028;-74
2022/04/30 07:49:01;;;;;;;;;22.67;19.67;;;;;;;;4989961;28;46120;-75
2022/04/30 07:51:42;;;;;;;;;27.00;21.00;;;;;;;;4985048;27;45596;-75
2022/04/30 07:54:10;;;;;;;;;23.67;20.33;;;;;;;;4984146;28;45738;-76
2022/04/30 07:56:42;;;;;;;;;25.00;22.00;;;;;;;;4979584;27;47054;-78
2022/04/30 07:59:07;;;;;;;;;21.67;20.33;;;;;;;;4978853;27;45695;-77
2022/04/30 08:01:38;;;;;;;;;24.00;20.33;;;;;;;;4976382;27;45842;-77
2022/04/30 08:04:03;;;;;;;;;25.33;20.67;;;;;;;;4979349;28;45526;-75
2022/04/30 08:06:29;;;;;;;;;21.67;17.67;;;;;;;;4979749;28;45611;-77
2022/04/30 08:08:54;;;;;;;;;22.33;21.67;;;;;;;;4981575;28;46638;-76
2022/04/30 08:11:19;;;;;;;;;21.33;19.33;;;;;;;;4977872;27;45381;-76
2022/04/30 08:13:44;;;;;;;;;23.67;20.67;;;;;;;;4977499;27;45814;-76
2022/04/30 08:16:10;;;;;;;;;20.67;17.33;;;;;;;;4968940;28;46990;-78
2022/04/30 08:18:37;;;;;;;;;19.67;19.00;;;;;;;;4978666;28;47049;-77
2022/04/30 08:21:02;;;;;;;;;18.00;17.00;;;;;;;;4969043;28;45721;-74
2022/04/30 08:23:28;;;;;;;;;23.67;19.67;;;;;;;;4973475;28;45832;-74
2022/04/30 08:25:53;;;;;;;;;21.00;18.67;;;;;;;;4972770;27;46118;-75
2022/04/30 08:28:18;;;;;;;;;21.33;16.33;;;;;;;;4971442;28;46925;-77
2022/04/30 08:30:43;;;;;;;;;18.67;17.67;;;;;;;;4985929;27;45833;-77
2022/04/30 08:33:09;;;;;;;;;15.67;15.67;;;;;;;;4983817;27;46810;-76
2022/04/30 08:35:34;;;;;;;;;18.33;16.67;;;;;;;;4995763;28;45403;-76
2022/04/30 08:37:59;;;;;;;;;21.33;19.33;;;;;;;;4970738;28;46963;-78
2022/04/30 08:40:25;;;;;;;;;18.33;18.33;;;;;;;;4978534;27;45418;-77
2022/04/30 08:42:50;;;;;;;;;15.00;14.00;;;;;;;;4977661;28;45436;-77
2022/04/30 08:45:16;;;;;;;;;29.33;25.67;;;;;;;;4972128;28;47266;-75
2022/04/30 08:47:42;;;;;;;;;18.33;15.00;;;;;;;;4973084;28;46470;-76
2022/04/30 08:50:11;;;;;;;;;22.00;21.33;;;;;;;;4972256;28;45419;-77
2022/04/30 08:52:36;;;;;;;;;14.67;14.33;;;;;;;;4972368;28;45708;-76
2022/04/30 08:55:02;;;;;;;;;17.67;15.67;;;;;;;;4972111;28;45387;-77
2022/04/30 08:57:28;;;;;;;;;15.00;14.00;;;;;;;;4972354;27;46849;-77
2022/04/30 08:59:53;;;;;;;;;17.00;14.67;;;;;;;;4966893;28;44779;-78
2022/04/30 09:02:19;;;;;;;;;12.67;11.00;;;;;;;;4972044;28;45717;-72
2022/04/30 09:04:46;;;;;;;;;24.00;19.33;;;;;;;;4973921;28;45524;-72
2022/04/30 09:07:14;;;;;;;;;14.33;13.33;;;;;;;;5024933;28;45420;-73
2022/04/30 09:09:39;;;;;;;;;14.00;13.33;;;;;;;;5000445;28;45729;-72
2022/04/30 09:12:05;;;;;;;;;11.00;11.00;;;;;;;;5031018;28;45845;-73
2022/04/30 09:14:34;;;;;;;;;10.50;9.75;;;;;;;;5027878;27;45910;-80
2022/04/30 09:17:03;;;;;;;;;12.25;10.00;;;;;;;;4975429;27;48002;-73
2022/04/30 09:19:29;;;;;;;;;9.25;9.25;;;;;;;;5000338;27;45460;-72
2022/04/30 09:21:54;;;;;;;;;13.00;10.50;;;;;;;;5010407;27;45379;-71
2022/04/30 09:24:19;;;;;;;;;11.75;11.00;;;;;;;;4977401;28;47046;-73
2022/04/30 09:26:45;;;;;;;;;8.00;8.00;;;;;;;;5011511;28;46283;-73
2022/04/30 09:29:20;;;;;;;;;9.25;9.25;;;;;;;;4981730;28;45833;-73
2022/04/30 09:31:52;;;;;;;;;10.75;9.50;;;;;;;;5017915;28;45754;-75
2022/04/30 09:39:46;;;;;;;;;13.00;12.25;;;;;;;;4979929;27;45837;-73
2022/04/30 09:42:12;;;;;;;;;10.50;10.50;;;;;;;;4994780;27;45991;-73
2022/04/30 09:44:37;;;;;;;;;10.75;10.00;;;;;;;;4965644;28;47376;-73
2022/04/30 09:47:06;;;;;;;;;11.75;8.00;;;;;;;;4976522;28;45833;-73
2022/04/30 09:55:00;;;;;;;;;10.00;8.50;;;;;;;;4985690;27;45399;-74
2022/04/30 09:57:26;;;;;;;;;11.00;8.00;;;;;;;;4967259;28;48474;-74
2022/04/30 09:59:54;;;;;;;;;10.75;8.25;;;;;;;;4986351;27;45950;-71
2022/04/30 10:02:21;;;;;;;;;10.00;7.50;;;;;;;;4983860;28;45647;-76
2022/04/30 10:04:47;;;;;;;;;11.00;8.25;;;;;;;;4982791;28;45440;-75
2022/04/30 10:07:15;;;;;;;;;9.50;8.50;;;;;;;;4983422;28;46337;-75
2022/04/30 10:09:42;;;;;;;;;9.75;7.75;;;;;;;;4988034;28;45692;-71
2022/04/30 10:12:19;;;;;;;;;10.33;9.33;;;;;;;;4989446;28;45445;-73
2022/04/30 10:14:54;;;;;;;;;11.33;10.00;;;;;;;;4989502;27;45776;-73
2022/04/30 10:17:23;;;;;;;;;12.25;10.50;;;;;;;;4990350;28;45768;-73
2022/04/30 10:20:08;;;;;;;;;12.33;11.00;;;;;;;;4990599;27;45538;-72
2022/04/30 10:23:00;;;;;;;;;11.00;11.00;;;;;;;;4992356;28;45428;-74
2022/04/30 10:28:39;;;;;;;;;11.75;10.75;;;;;;;;4973198;28;45760;-71
2022/04/30 10:31:10;;;;;;;;;8.25;8.00;;;;;;;;4995832;27;45453;-72
2022/04/30 10:33:48;;;;;;;;;11.25;11.25;;;;;;;;4994728;27;45825;-71
2022/04/30 10:36:14;;;;;;;;;11.50;11.50;;;;;;;;4995621;27;45760;-71
2022/04/30 10:38:39;;;;;;;;;12.00;10.00;;;;;;;;4993329;27;45354;-72
2022/04/30 10:41:26;;;;;;;;;10.75;10.75;;;;;;;;5038251;27;45363;-74
2022/04/30 10:44:02;;;;;;;;;12.75;11.00;;;;;;;;5011547;28;45867;-71
2022/04/30 10:46:38;;;;;;;;;10.00;8.67;;;;;;;;5070171;27;45665;-73
2022/04/30 10:49:05;;;;;;;;;10.75;8.75;;;;;;;;5000444;28;45597;-73
2022/04/30 10:51:40;;;;;;;;;9.33;9.33;;;;;;;;4979219;27;45504;-70
2022/04/30 10:54:16;;;;;;;;;9.50;8.00;;;;;;;;4968455;28;45915;-71
2022/04/30 10:56:49;;;;;;;;;9.25;8.25;;;;;;;;4973501;27;46800;-68
2022/04/30 10:59:26;;;;;;;;;10.00;8.50;;;;;;;;4977517;28;45602;-71
2022/04/30 11:02:04;;;;;;;;;7.67;7.67;;;;;;;;4999402;28;45779;-71
2022/04/30 11:04:32;;;;;;;;;12.25;10.50;;;;;;;;4980263;27;45358;-70
2022/04/30 11:06:58;;;;;;;;;9.00;8.50;;;;;;;;4977949;28;45746;-70
2022/04/30 11:09:40;;;;;;;;;8.75;7.75;;;;;;;;4995768;27;45865;-71
2022/04/30 11:12:08;;;;;;;;;7.00;7.00;;;;;;;;5001852;27;45293;-73
2022/04/30 11:14:34;;;;;;;;;5.33;4.67;;;;;;;;4994622;27;45411;-72
2022/04/30 11:17:02;;;;;;;;;10.00;6.33;;;;;;;;4978737;28;46155;-71
2022/04/30 11:19:30;;;;;;;;;11.33;6.67;;;;;;;;5042717;28;46448;-71
2022/04/30 11:22:13;;;;;;;;;8.67;6.00;;;;;;;;5060012;28;45386;-73
2022/04/30 11:24:40;;;;;;;;;5.67;4.00;;;;;;;;5032784;28;45828;-73
2022/04/30 11:27:08;;;;;;;;;4.00;4.00;;;;;;;;5066846;28;45899;-72
2022/04/30 11:29:34;;;;;;;;;5.33;3.67;;;;;;;;5072661;27;46520;-71
2022/04/30 11:32:00;;;;;;;;;5.33;3.67;;;;;;;;5072547;27;45638;-72
2022/04/30 11:34:25;;;;;;;;;7.00;5.33;;;;;;;;5072383;28;45746;-72
2022/04/30 11:36:51;;;;;;;;;6.67;4.00;;;;;;;;5072409;27;45496;-72
2022/04/30 11:39:18;;;;;;;;;2.67;2.33;;;;;;;;5055419;28;46333;-72
2022/04/30 11:42:07;;;;;;;;;5.33;4.33;;;;;;;;5074163;28;45436;-68
2022/04/30 11:44:32;;;;;;;;;7.33;5.33;;;;;;;;5057976;27;45645;-72
2022/04/30 11:46:57;;;;;;;;;2.67;2.67;;;;;;;;5073062;28;45380;-73
2022/04/30 11:52:03;;;;;;;;;8.00;4.67;;;;;;;;5064386;22;46009;-80
2022/04/30 11:54:29;;;;;;;;;4.33;4.00;;;;;;;;5055970;28;45719;-79
2022/04/30 11:56:56;;;;;;;;;4.00;4.00;;;;;;;;5054209;28;45840;-80
2022/04/30 11:59:32;;;;;;;;;5.33;3.33;;;;;;;;5073659;28;47099;-79
2022/04/30 12:02:05;;;;;;;;;3.67;2.67;;;;;;;;5073312;28;45732;-79
2022/04/30 12:04:33;;;;;;;;;2.00;2.00;;;;;;;;5054734;28;45389;-81
2022/04/30 12:06:59;;;;;;;;;4.00;4.00;;;;;;;;5056231;28;45699;-78
2022/04/30 12:09:31;;;;;;;;;6.67;5.00;;;;;;;;5071917;28;46513;-77
2022/04/30 12:11:57;;;;;;;;;5.33;3.33;;;;;;;;5071690;28;45695;-78
2022/04/30 12:14:22;;;;;;;;;3.00;3.00;;;;;;;;5058300;28;45473;-78
2022/04/30 12:16:48;;;;;;;;;4.33;3.33;;;;;;;;5052555;28;47097;-80
2022/04/30 12:25:05;;;;;;;;;3.33;3.00;;;;;;;;5054307;28;45775;-79
2022/04/30 12:27:30;;;;;;;;;3.67;2.33;;;;;;;;5051100;28;45873;-81
2022/04/30 12:30:16;;;;;;;;;4.00;3.67;;;;;;;;5054351;28;46219;-78
2022/04/30 12:32:46;;;;;;;;;4.00;4.00;;;;;;;;5054398;28;45410;-79
2022/04/30 12:35:12;;;;;;;;;6.67;4.00;;;;;;;;5067262;28;45575;-79
2022/04/30 12:37:38;;;;;;;;;3.00;3.00;;;;;;;;5073978;28;45421;-78
2022/04/30 12:40:03;;;;;;;;;4.33;4.00;;;;;;;;5074326;28;46143;-79
2022/04/30 12:42:29;;;;;;;;;3.00;3.00;;;;;;;;5060416;28;45553;-79
2022/04/30 12:44:54;;;;;;;;;4.00;4.00;;;;;;;;5079011;28;45378;-80
2022/04/30 12:47:19;;;;;;;;;3.33;3.33;;;;;;;;5058925;28;46273;-76
2022/04/30 12:49:44;;;;;;;;;3.00;3.00;;;;;;;;5074065;28;45518;-77
2022/04/30 12:52:10;;;;;;;;;4.00;2.33;;;;;;;;5048595;28;45750;-78
2022/04/30 12:54:36;;;;;;;;;4.00;4.00;;;;;;;;5059355;28;45791;-77
2022/04/30 12:57:07;;;;;;;;;2.00;2.00;;;;;;;;5077914;28;45502;-79
2022/04/30 12:59:32;;;;;;;;;3.00;3.00;;;;;;;;5078458;28;47735;-79
2022/04/30 13:01:57;;;;;;;;;3.00;3.00;;;;;;;;5061372;28;45628;-78
2022/04/30 13:04:23;;;;;;;;;2.00;2.00;;;;;;;;5059954;28;45786;-80
2022/04/30 13:06:48;;;;;;;;;4.00;4.00;;;;;;;;5080166;28;45268;-77
2022/04/30 13:15:01;;;;;;;;;3.33;3.33;;;;;;;;5086454;28;45468;-84
2022/04/30 13:17:26;;;;;;;;;3.67;2.00;;;;;;;;5061363;28;45477;-79
2022/04/30 13:19:56;;;;;;;;;5.33;3.67;;;;;;;;5070718;28;45672;-78
2022/04/30 13:22:21;;;;;;;;;4.67;3.33;;;;;;;;5059753;28;45428;-79
2022/04/30 13:24:46;;;;;;;;;5.67;4.00;;;;;;;;5058153;28;45833;-78
2022/04/30 13:27:12;;;;;;;;;6.33;4.00;;;;;;;;5060602;28;45789;-79
2022/04/30 13:29:37;;;;;;;;;9.00;6.33;;;;;;;;5076721;28;45812;-79
2022/04/30 13:32:02;;;;;;;;;3.67;3.67;;;;;;;;5076918;28;45381;-79
2022/04/30 13:34:28;;;;;;;;;7.33;3.00;;;;;;;;5076163;28;45681;-76
2022/04/30 13:36:53;;;;;;;;;8.00;6.00;;;;;;;;5076386;28;45596;-78
2022/04/30 13:39:18;;;;;;;;;8.00;5.00;;;;;;;;5077267;28;46528;-76
2022/04/30 13:41:44;;;;;;;;;5.67;5.67;;;;;;;;5061973;28;45437;-77
2022/04/30 13:44:09;;;;;;;;;5.00;4.00;;;;;;;;5059739;28;45668;-80
2022/04/30 13:46:36;;;;;;;;;6.33;2.33;;;;;;;;5077420;28;45414;-79
2022/04/30 13:49:02;;;;;;;;;8.67;5.33;;;;;;;;5079592;28;45608;-81
2022/04/30 13:51:27;;;;;;;;;3.00;3.00;;;;;;;;5066528;28;45838;-77
2022/04/30 13:53:53;;;;;;;;;4.67;4.67;;;;;;;;5078886;28;45704;-80
2022/04/30 13:56:18;;;;;;;;;6.33;4.33;;;;;;;;5078066;28;45398;-78
2022/04/30 13:58:43;;;;;;;;;5.00;5.00;;;;;;;;5049376;28;46907;-80
2022/04/30 14:01:12;;;;;;;;;42.00;31.33;;;;;;;;5069286;28;45831;-78
2022/04/30 14:03:37;;;;;;;;;4.00;4.00;;;;;;;;5063811;28;45413;-80
2022/04/30 14:06:04;;;;;;;;;4.67;4.67;;;;;;;;5071711;28;45802;-78
2022/04/30 14:08:29;;;;;;;;;5.67;5.67;;;;;;;;5054847;28;46590;-79
2022/04/30 14:10:55;;;;;;;;;5.00;3.00;;;;;;;;5056200;28;44850;-82
2022/04/30 14:16:05;;;;;;;;;4.00;4.00;;;;;;;;5079667;28;45502;-84
2022/04/30 14:18:30;;;;;;;;;7.33;6.00;;;;;;;;5076395;28;45694;-84
2022/04/30 14:20:56;;;;;;;;;5.33;5.33;;;;;;;;5074198;28;45442;-80
2022/04/30 14:23:22;;;;;;;;;5.00;5.00;;;;;;;;5065599;28;45549;-78
2022/04/30 14:25:49;;;;;;;;;6.67;5.00;;;;;;;;5052803;28;46287;-79
2022/04/30 14:28:15;;;;;;;;;13.33;11.33;;;;;;;;5055362;28;46022;-80
2022/04/30 14:30:42;;;;;;;;;5.67;4.00;;;;;;;;5053984;28;45695;-84
2022/04/30 14:33:08;;;;;;;;;5.00;5.00;;;;;;;;5067496;28;45421;-82
2022/04/30 14:35:33;;;;;;;;;6.67;6.67;;;;;;;;5053029;28;45545;-82
2022/04/30 14:37:59;;;;;;;;;4.67;4.67;;;;;;;;5054957;28;46713;-79
2022/04/30 14:40:24;;;;;;;;;8.00;7.67;;;;;;;;5044859;28;45688;-76
2022/04/30 14:42:49;;;;;;;;;7.33;7.33;;;;;;;;5076554;28;45927;-77
2022/04/30 14:45:15;;;;;;;;;2.33;1.33;;;;;;;;5082974;27;47297;-76
2022/04/30 14:47:41;;;;;;;;;7.00;6.33;;;;;;;;5076418;28;45390;-77
2022/04/30 14:50:07;;;;;;;;;9.33;6.67;;;;;;;;5076206;28;45701;-78
2022/04/30 14:52:32;;;;;;;;;6.67;6.67;;;;;;;;5060485;28;45406;-81
2022/04/30 14:54:58;;;;;;;;;8.67;7.33;;;;;;;;5057956;28;45541;-78
2022/04/30 14:57:23;;;;;;;;;7.67;7.00;;;;;;;;5055305;28;46862;-78
2022/04/30 14:59:49;;;;;;;;;7.33;7.33;;;;;;;;5056508;28;45403;-82
2022/04/30 15:02:14;;;;;;;;;8.00;7.33;;;;;;;;5067342;28;45509;-77
2022/04/30 15:04:39;;;;;;;;;7.33;7.33;;;;;;;;5050967;28;46649;-82
2022/04/30 15:07:05;;;;;;;;;7.67;7.00;;;;;;;;5076818;28;45903;-79
2022/04/30 15:09:30;;;;;;;;;7.33;5.67;;;;;;;;5077395;28;45478;-82
2022/04/30 15:11:55;;;;;;;;;7.67;6.33;;;;;;;;5060728;28;44863;-85
2022/04/30 15:14:21;;;;;;;;;6.33;5.33;;;;;;;;5051670;28;45914;-80
2022/04/30 15:16:47;;;;;;;;;5.00;4.00;;;;;;;;5077837;28;45556;-82
2022/04/30 15:19:12;;;;;;;;;11.67;11.00;;;;;;;;5058941;28;45407;-80